Time;durP1;ratioP1;P1;durP2;ratioP2;P2;SDS_P1;SDS_P2;PMS_P1;PMS_P2;Temp;Humidity;BMP_temperature;BMP_pressure;BME280_temperature;BME280_humidity;BME280_pressure;Samples;Min_cycle;Max_cycle;Signal;HPM_P1;HPM_P2
2023/12/09 00:01:58;;;;;;;0.13;0.13;;;;;;;11.16;nan;98352.72;7393362;19;20364;-56
2023/12/09 00:04:24;;;;;;;0.10;0.10;;;;;;;11.19;nan;98353.72;7396344;19;20417;-56
2023/12/09 00:06:51;;;;;;;0.20;0.20;;;;;;;11.21;nan;98356.75;7392506;19;20038;-56
2023/12/09 00:09:20;;;;;;;0.10;0.10;;;;;;;11.25;nan;98343.28;7388695;19;20074;-56
2023/12/09 00:11:46;;;;;;;0.15;0.15;;;;;;;11.26;nan;98330.88;7391770;19;20006;-56
2023/12/09 00:14:12;;;;;;;0.10;0.10;;;;;;;11.21;nan;98323.31;7394586;19;20026;-56
2023/12/09 00:16:42;;;;;;;0.10;0.10;;;;;;;11.13;nan;98327.94;7392236;19;20017;-56
2023/12/09 00:19:09;;;;;;;0.10;0.10;;;;;;;11.01;nan;98332.81;7391038;19;20007;-56
2023/12/09 00:21:35;;;;;;;0.10;0.10;;;;;;;10.91;nan;98316.91;7394121;19;20027;-56
2023/12/09 00:24:01;;;;;;;0.50;0.50;;;;;;;10.82;nan;98320.00;7393656;19;20007;-56
2023/12/09 00:26:28;;;;;;;0.10;0.10;;;;;;;10.72;nan;98321.59;7390810;19;20011;-56
2023/12/09 00:28:54;;;;;;;0.28;0.28;;;;;;;10.70;nan;98321.34;7389697;19;20011;-56
2023/12/09 00:31:20;;;;;;;0.10;0.10;;;;;;;10.65;nan;98331.22;7393439;19;20451;-56
2023/12/09 00:33:46;;;;;;;0.10;0.10;;;;;;;10.63;nan;98328.94;7391989;19;20038;-56
2023/12/09 00:36:13;;;;;;;0.10;0.10;;;;;;;10.55;nan;98322.41;7392478;19;20010;-56
2023/12/09 00:38:39;;;;;;;0.85;0.40;;;;;;;10.47;nan;98324.22;7391898;19;20477;-56
2023/12/09 00:41:05;;;;;;;0.20;0.20;;;;;;;10.42;nan;98316.63;7391667;19;20015;-56
2023/12/09 00:43:32;;;;;;;0.10;0.10;;;;;;;10.46;nan;98321.94;7391140;19;20471;-56
2023/12/09 00:45:58;;;;;;;0.10;0.10;;;;;;;10.49;nan;98316.09;7395140;19;20131;-56
2023/12/09 00:48:24;;;;;;;0.10;0.10;;;;;;;10.52;nan;98322.69;7390810;19;20010;-57
2023/12/09 00:50:50;;;;;;;0.10;0.10;;;;;;;10.49;nan;98313.31;7392000;19;20014;-56
2023/12/09 00:53:17;;;;;;;0.20;0.20;;;;;;;10.38;nan;98313.38;7390749;19;20007;-56
2023/12/09 00:55:43;;;;;;;2.60;0.57;;;;;;;10.43;nan;98301.47;7392138;19;20659;-56
2023/12/09 00:58:09;;;;;;;0.10;0.10;;;;;;;10.43;nan;98301.47;7387554;19;20015;-56
2023/12/09 01:00:35;;;;;;;0.13;0.13;;;;;;;10.43;nan;98289.56;7393207;19;20021;-56
2023/12/09 01:03:01;;;;;;;0.20;0.20;;;;;;;10.43;nan;98284.78;7397976;19;20038;-56
2023/12/09 01:05:27;;;;;;;0.10;0.10;;;;;;;10.44;nan;98275.13;7397724;19;20014;-56
2023/12/09 01:07:53;;;;;;;0.10;0.10;;;;;;;10.42;nan;98266.53;7397258;19;20010;-56
2023/12/09 01:10:19;;;;;;;0.17;0.17;;;;;;;10.40;nan;98257.94;7398407;19;20025;-56
2023/12/09 01:12:45;;;;;;;0.38;0.38;;;;;;;10.42;nan;98269.31;7397463;19;20374;-56
2023/12/09 01:15:12;;;;;;;0.17;0.17;;;;;;;10.44;nan;98266.78;7395493;19;20010;-56
2023/12/09 01:17:38;;;;;;;0.13;0.13;;;;;;;10.49;nan;98271.56;7399490;19;20078;-56
2023/12/09 01:20:05;;;;;;;0.45;0.45;;;;;;;10.53;nan;98266.50;7399722;19;20018;-56
2023/12/09 01:22:31;;;;;;;0.10;0.10;;;;;;;10.64;nan;98260.88;7400007;19;20555;-56
2023/12/09 01:24:57;;;;;;;0.10;0.10;;;;;;;10.73;nan;98251.44;7398036;19;20682;-56
2023/12/09 01:27:23;;;;;;;0.20;0.20;;;;;;;10.80;nan;98256.47;7396663;19;20011;-56
2023/12/09 01:29:49;;;;;;;0.10;0.00;;;;;;;10.90;nan;98248.56;7395417;19;20433;-56
2023/12/09 01:32:15;;;;;;;0.20;0.20;;;;;;;10.92;nan;98246.00;7397755;19;20013;-56
2023/12/09 01:34:41;;;;;;;0.15;0.15;;;;;;;10.95;nan;98242.97;7396941;19;20070;-56
2023/12/09 01:37:07;;;;;;;0.68;0.30;;;;;;;11.03;nan;98245.94;7402172;19;20463;-56
2023/12/09 01:39:36;;;;;;;0.10;0.10;;;;;;;11.09;nan;98232.72;7398305;19;20014;-56
2023/12/09 01:42:03;;;;;;;0.13;0.13;;;;;;;11.12;nan;98237.25;7396530;19;20335;-56
2023/12/09 01:44:29;;;;;;;0.10;0.10;;;;;;;11.12;nan;98231.69;7398176;19;20007;-56
2023/12/09 01:46:55;;;;;;;0.10;0.10;;;;;;;11.08;nan;98228.44;7400540;19;20007;-56
2023/12/09 01:49:22;;;;;;;0.17;0.17;;;;;;;11.02;nan;98238.88;7393898;19;20017;-56
2023/12/09 01:51:48;;;;;;;0.10;0.10;;;;;;;10.98;nan;98221.69;7399064;19;20464;-56
2023/12/09 01:54:14;;;;;;;0.10;0.10;;;;;;;10.91;nan;98209.06;7397755;19;20027;-56
2023/12/09 01:56:40;;;;;;;0.10;0.10;;;;;;;10.86;nan;98206.31;7400565;19;20010;-56
2023/12/09 01:59:07;;;;;;;0.10;0.10;;;;;;;10.78;nan;98191.44;7396940;19;20022;-56
2023/12/09 02:01:35;;;;;;;0.60;0.40;;;;;;;10.70;nan;98209.97;7398136;19;20021;-56
2023/12/09 02:04:03;;;;;;;0.20;0.20;;;;;;;10.61;nan;98216.63;7398856;19;20017;-56
2023/12/09 02:06:29;;;;;;;0.10;0.10;;;;;;;10.59;nan;98214.31;7401989;19;20041;-56
2023/12/09 02:08:55;;;;;;;0.20;0.20;;;;;;;10.57;nan;98218.88;7396150;19;20360;-56
2023/12/09 02:11:53;;;;;;;0.13;0.13;;;;;;;10.56;nan;98220.94;7396924;19;20463;-57
2023/12/09 02:14:38;;;;;;;0.20;0.20;;;;;;;10.53;nan;98210.81;7397627;19;20703;-56
2023/12/09 02:17:19;;;;;;;0.20;0.20;;;;;;;10.52;nan;98198.19;7397357;19;20011;-56
2023/12/09 02:19:46;;;;;;;1.83;0.57;;;;;;;10.51;nan;98188.31;7396437;19;20651;-57
2023/12/09 02:22:12;;;;;;;0.10;0.10;;;;;;;10.46;nan;98194.66;7400023;19;20015;-56
2023/12/09 02:24:38;;;;;;;0.20;0.20;;;;;;;10.45;nan;98182.03;7393594;19;20019;-57
2023/12/09 02:27:10;;;;;;;0.15;0.15;;;;;;;10.47;nan;98179.50;7400028;19;20026;-56
2023/12/09 02:30:03;;;;;;;0.17;0.17;;;;;;;10.49;nan;98171.38;7392496;19;20025;-56
2023/12/09 02:32:31;;;;;;;0.10;0.10;;;;;;;10.50;nan;98161.75;7395825;19;20496;-56
2023/12/09 02:34:59;;;;;;;0.10;0.10;;;;;;;10.49;nan;98160.25;7396858;19;20074;-56
2023/12/09 02:37:30;;;;;;;0.10;0.10;;;;;;;10.29;nan;98157.84;7395488;19;20011;-56
2023/12/09 02:39:59;;;;;;;0.10;0.10;;;;;;;10.46;nan;98166.84;7393715;19;20497;-56
2023/12/09 02:42:25;;;;;;;0.20;0.20;;;;;;;10.38;nan;98171.44;7395657;19;20416;-56
2023/12/09 02:44:52;;;;;;;0.20;0.20;;;;;;;10.36;nan;98171.22;7395758;19;20070;-56
2023/12/09 02:47:18;;;;;;;0.10;0.10;;;;;;;10.35;nan;98178.03;7400693;19;20010;-56
2023/12/09 02:49:44;;;;;;;0.20;0.20;;;;;;;10.46;nan;98172.41;7393756;19;20024;-56
2023/12/09 02:52:11;;;;;;;2.13;0.85;;;;;;;11.76;nan;98166.72;7396911;19;20018;-57
2023/12/09 02:54:37;;;;;;;0.20;0.20;;;;;;;10.90;nan;98159.44;7395325;19;20011;-56
2023/12/09 02:57:04;;;;;;;0.10;0.10;;;;;;;10.89;nan;98157.94;7398657;19;20082;-54
2023/12/09 02:59:30;;;;;;;0.10;0.10;;;;;;;10.85;nan;98160.25;7392963;19;20015;-54
2023/12/09 03:01:57;;;;;;;0.20;0.20;;;;;;;10.83;nan;98157.97;7392207;19;20017;-54
2023/12/09 03:04:23;;;;;;;0.10;0.10;;;;;;;10.80;nan;98150.66;7389883;19;20010;-54
2023/12/09 03:06:49;;;;;;;0.77;0.77;;;;;;;10.84;nan;98145.56;7393675;19;20018;-54
2023/12/09 03:09:16;;;;;;;0.20;0.20;;;;;;;10.85;nan;98140.75;7389738;19;20507;-54
2023/12/09 03:11:42;;;;;;;0.30;0.30;;;;;;;10.66;nan;98130.25;7391714;19;20460;-54
2023/12/09 03:14:08;;;;;;;0.10;0.10;;;;;;;10.91;nan;98127.53;7391937;19;20368;-54
2023/12/09 03:16:37;;;;;;;0.30;0.30;;;;;;;11.07;nan;98112.69;7396555;19;20006;-54
2023/12/09 03:19:04;;;;;;;0.10;0.10;;;;;;;11.19;nan;98114.88;7393699;19;20035;-54
2023/12/09 03:21:30;;;;;;;0.10;0.10;;;;;;;11.26;nan;98105.19;7397872;19;20094;-54
2023/12/09 03:23:56;;;;;;;0.20;0.20;;;;;;;11.34;nan;98103.31;7390981;19;20018;-54
2023/12/09 03:26:24;;;;;;;0.10;0.10;;;;;;;11.44;nan;98098.88;7396203;19;20014;-54
2023/12/09 03:28:51;;;;;;;0.10;0.10;;;;;;;11.51;nan;98097.53;7393130;19;20015;-54
2023/12/09 03:31:19;;;;;;;0.35;0.30;;;;;;;11.59;nan;98085.28;7394253;19;20058;-54
2023/12/09 03:33:45;;;;;;;0.10;0.10;;;;;;;11.65;nan;98076.84;7393281;19;20048;-54
2023/12/09 03:36:14;;;;;;;0.10;0.10;;;;;;;11.67;nan;98074.31;7395801;19;20383;-54
2023/12/09 03:38:41;;;;;;;0.20;0.20;;;;;;;11.69;nan;98057.81;7392359;19;20020;-54
2023/12/09 03:41:08;;;;;;;0.10;0.10;;;;;;;11.77;nan;98039.19;7394565;19;20459;-54
2023/12/09 03:43:35;;;;;;;0.25;0.20;;;;;;;11.78;nan;98024.72;7392172;19;20010;-54
2023/12/09 03:46:01;;;;;;;0.15;0.15;;;;;;;11.82;nan;98013.28;7395598;19;20018;-54
2023/12/09 03:48:28;;;;;;;0.20;0.20;;;;;;;11.82;nan;98014.03;7392819;19;20034;-54
2023/12/09 03:50:55;;;;;;;0.55;0.55;;;;;;;11.82;nan;98000.09;7394819;19;20049;-54
2023/12/09 03:53:22;;;;;;;0.47;0.32;;;;;;;11.89;nan;98001.53;7394430;19;20748;-54
2023/12/09 03:55:50;;;;;;;0.10;0.10;;;;;;;11.91;nan;98001.75;7394400;19;20010;-54
2023/12/09 03:58:17;;;;;;;0.10;0.10;;;;;;;11.95;nan;97985.44;7394482;19;20010;-54
2023/12/09 04:00:43;;;;;;;0.10;0.00;;;;;;;11.99;nan;97978.28;7394125;19;20022;-54
2023/12/09 04:03:09;;;;;;;0.10;0.00;;;;;;;11.98;nan;97965.59;7394901;19;20018;-54
2023/12/09 04:05:35;;;;;;;1.75;0.50;;;;;;;12.02;nan;97965.28;7394203;19;20021;-54
2023/12/09 04:08:01;;;;;;;2.90;0.35;;;;;;;12.09;nan;97965.44;7397696;19;20011;-54
2023/12/09 04:10:28;;;;;;;0.10;0.10;;;;;;;12.12;nan;97960.81;7390616;19;20344;-55
2023/12/09 04:12:54;;;;;;;0.10;0.10;;;;;;;12.15;nan;97951.38;7392639;19;20017;-54
2023/12/09 04:15:20;;;;;;;0.40;0.40;;;;;;;12.16;nan;97942.50;7393043;19;20011;-55
2023/12/09 04:17:46;;;;;;;0.73;0.73;;;;;;;12.23;nan;97935.53;7395905;19;20070;-54
2023/12/09 04:20:13;;;;;;;0.13;0.13;;;;;;;12.26;nan;97926.06;7393328;19;20013;-54
2023/12/09 04:22:39;;;;;;;0.30;0.30;;;;;;;12.27;nan;97910.09;7396026;19;20014;-54
2023/12/09 04:25:06;;;;;;;0.10;0.10;;;;;;;12.30;nan;97906.25;7392710;19;20039;-54
2023/12/09 04:27:33;;;;;;;0.10;0.10;;;;;;;12.32;nan;97909.25;7394000;19;20014;-54
2023/12/09 04:30:00;;;;;;;0.10;0.10;;;;;;;12.36;nan;97909.69;7392102;19;20015;-54
2023/12/09 04:32:29;;;;;;;0.10;0.10;;;;;;;12.36;nan;97893.69;7394162;19;20006;-55
2023/12/09 04:34:57;;;;;;;0.10;0.00;;;;;;;12.41;nan;97878.13;7391679;19;20556;-54
2023/12/09 04:37:23;;;;;;;1.10;1.00;;;;;;;12.42;nan;97868.44;7391197;19;20448;-54
2023/12/09 04:39:50;;;;;;;0.10;0.10;;;;;;;12.44;nan;97849.88;7392563;19;20019;-54
2023/12/09 04:42:18;;;;;;;0.10;0.10;;;;;;;12.47;nan;97868.34;7392270;19;20014;-54
2023/12/09 04:44:44;;;;;;;0.20;0.20;;;;;;;12.51;nan;97862.44;7391722;19;20477;-54
2023/12/09 04:47:10;;;;;;;0.32;0.32;;;;;;;12.51;nan;97866.00;7390906;19;21040;-54
2023/12/09 04:49:36;;;;;;;0.10;0.10;;;;;;;12.53;nan;97862.66;7393109;19;20487;-54
2023/12/09 04:52:03;;;;;;;0.10;0.10;;;;;;;12.58;nan;97865.31;7393450;19;20385;-54
2023/12/09 04:54:30;;;;;;;0.10;0.00;;;;;;;12.62;nan;97865.03;7392240;19;20014;-54
2023/12/09 04:56:56;;;;;;;0.10;0.10;;;;;;;12.60;nan;97850.84;7390387;19;20470;-54
2023/12/09 04:59:23;;;;;;;0.10;0.00;;;;;;;12.63;nan;97833.75;7391734;19;20425;-55
2023/12/09 05:01:49;;;;;;;0.10;0.10;;;;;;;12.66;nan;97831.94;7390612;19;20017;-55
2023/12/09 05:04:17;;;;;;;0.45;0.45;;;;;;;12.68;nan;97841.28;7391661;19;20007;-55
2023/12/09 05:06:43;;;;;;;0.10;0.10;;;;;;;12.70;nan;97826.78;7391080;19;20011;-55
2023/12/09 05:09:10;;;;;;;0.10;0.10;;;;;;;12.72;nan;97824.94;7391073;19;20021;-55
2023/12/09 05:11:36;;;;;;;0.10;0.10;;;;;;;12.72;nan;97818.59;7390094;19;20014;-55
2023/12/09 05:14:02;;;;;;;0.10;0.10;;;;;;;12.73;nan;97804.09;7390386;19;20096;-55
2023/12/09 05:16:29;;;;;;;0.10;0.00;;;;;;;12.75;nan;97798.75;7389139;19;20091;-55
2023/12/09 05:18:55;;;;;;;0.10;0.10;;;;;;;12.74;nan;97794.44;7391278;19;20014;-55
2023/12/09 05:21:21;;;;;;;0.20;0.20;;;;;;;12.72;nan;97785.84;7395526;19;20007;-55
2023/12/09 05:23:47;;;;;;;0.10;0.10;;;;;;;12.76;nan;97774.34;7390983;19;20010;-55
2023/12/09 05:26:24;;;;;;;0.10;0.00;;;;;;;12.72;nan;97762.75;7390705;19;20021;-55
2023/12/09 05:28:51;;;;;;;0.10;0.10;;;;;;;12.69;nan;97761.78;7388382;19;20510;-55
2023/12/09 05:31:17;;;;;;;0.98;0.90;;;;;;;12.70;nan;97762.53;7393075;19;20010;-56
2023/12/09 05:33:43;;;;;;;0.35;0.35;;;;;;;12.68;nan;97746.31;7390668;19;20026;-55
2023/12/09 05:36:10;;;;;;;0.10;0.10;;;;;;;12.72;nan;97743.94;7391098;19;20088;-55
2023/12/09 05:38:37;;;;;;;0.10;0.05;;;;;;;12.70;nan;97743.00;7387850;19;20011;-55
2023/12/09 05:41:05;;;;;;;0.10;0.10;;;;;;;12.75;nan;97733.75;7390176;19;20018;-55
2023/12/09 05:43:31;;;;;;;0.10;0.10;;;;;;;12.75;nan;97739.34;7390274;19;20029;-55
2023/12/09 05:45:57;;;;;;;0.10;0.10;;;;;;;12.79;nan;97734.16;7392080;19;20011;-55
2023/12/09 05:48:23;;;;;;;0.10;0.10;;;;;;;12.81;nan;97731.56;7397289;19;20038;-55
2023/12/09 05:50:49;;;;;;;0.10;0.10;;;;;;;12.80;nan;97713.28;7397584;19;20018;-55
2023/12/09 05:53:16;;;;;;;0.13;0.13;;;;;;;12.79;nan;97706.97;7400462;19;20070;-55
2023/12/09 05:55:42;;;;;;;0.10;0.10;;;;;;;12.81;nan;97692.47;7397696;19;20015;-55
2023/12/09 05:58:08;;;;;;;0.10;0.10;;;;;;;12.80;nan;97669.38;7397554;19;20014;-55
2023/12/09 06:00:34;;;;;;;0.20;0.20;;;;;;;12.81;nan;97633.81;7394875;19;20011;-56
2023/12/09 06:03:00;;;;;;;0.10;0.10;;;;;;;12.81;nan;97633.81;7401249;19;20017;-56
2023/12/09 06:05:27;;;;;;;0.10;0.10;;;;;;;12.83;nan;97623.59;7395901;19;20011;-55
2023/12/09 06:07:53;;;;;;;0.30;0.30;;;;;;;12.84;nan;97607.59;7398567;19;20023;-55
2023/12/09 06:10:19;;;;;;;0.20;0.20;;;;;;;12.85;nan;97609.84;7396454;19;20017;-56
2023/12/09 06:12:45;;;;;;;0.10;0.00;;;;;;;12.86;nan;97610.59;7400866;19;20010;-55
2023/12/09 06:15:11;;;;;;;0.10;0.10;;;;;;;12.86;nan;97600.13;7397075;19;20066;-55
2023/12/09 06:17:38;;;;;;;0.10;0.10;;;;;;;12.89;nan;97609.47;7397215;19;20065;-56
2023/12/09 06:20:07;;;;;;;0.10;0.00;;;;;;;12.92;nan;97609.16;7395941;19;20039;-56
2023/12/09 06:22:33;;;;;;;0.10;0.10;;;;;;;12.87;nan;97601.66;7399146;19;20016;-56
2023/12/09 06:24:59;;;;;;;0.10;0.10;;;;;;;12.91;nan;97584.53;7396348;19;20112;-56
2023/12/09 06:27:25;;;;;;;0.10;0.10;;;;;;;12.91;nan;97573.38;7395068;19;20010;-56
2023/12/09 06:29:52;;;;;;;0.10;0.10;;;;;;;12.94;nan;97566.69;7394685;19;20048;-55
2023/12/09 06:32:18;;;;;;;0.10;0.10;;;;;;;12.97;nan;97559.28;7398378;19;20034;-56
2023/12/09 06:34:44;;;;;;;0.30;0.30;;;;;;;13.01;nan;97542.91;7396526;19;20571;-55
2023/12/09 06:37:11;;;;;;;0.10;0.10;;;;;;;13.01;nan;97521.31;7394411;19;20383;-56
2023/12/09 06:39:37;;;;;;;0.10;0.10;;;;;;;13.07;nan;97510.75;7395614;19;20112;-56
2023/12/09 06:42:05;;;;;;;0.15;0.10;;;;;;;13.09;nan;97494.19;7396242;19;20021;-56
2023/12/09 06:44:31;;;;;;;0.10;0.10;;;;;;;13.11;nan;97480.41;7395095;19;20014;-56
2023/12/09 06:46:57;;;;;;;0.20;0.20;;;;;;;13.12;nan;97470.75;7395468;19;20014;-56
2023/12/09 06:49:23;;;;;;;0.10;0.10;;;;;;;13.15;nan;97447.25;7394453;19;20019;-56
2023/12/09 06:51:50;;;;;;;0.10;0.03;;;;;;;13.13;nan;97438.69;7396087;19;20015;-56
2023/12/09 06:54:16;;;;;;;0.10;0.10;;;;;;;13.09;nan;97429.91;7395038;19;20349;-56
2023/12/09 06:56:42;;;;;;;0.10;0.10;;;;;;;13.13;nan;97413.53;7394139;19;20014;-56
2023/12/09 06:59:09;;;;;;;0.15;0.10;;;;;;;13.22;nan;97406.69;7391572;19;20014;-56
2023/12/09 07:01:35;;;;;;;0.10;0.10;;;;;;;13.29;nan;97398.34;7395788;19;20015;-56
2023/12/09 07:04:01;;;;;;;0.57;0.57;;;;;;;13.35;nan;97396.13;7395180;19;20147;-56
2023/12/09 07:06:29;;;;;;;0.10;0.10;;;;;;;13.36;nan;97388.47;7396056;19;20018;-56
2023/12/09 07:08:59;;;;;;;0.10;0.10;;;;;;;13.38;nan;97374.69;7392534;19;20010;-56
2023/12/09 07:11:25;;;;;;;0.10;0.00;;;;;;;13.41;nan;97363.13;7396135;19;20475;-56
2023/12/09 07:13:51;;;;;;;0.20;0.10;;;;;;;13.43;nan;97366.13;7395306;19;20011;-56
2023/12/09 07:16:18;;;;;;;0.35;0.35;;;;;;;13.44;nan;97361.28;7396859;19;20448;-56
2023/12/09 07:18:46;;;;;;;0.10;0.10;;;;;;;13.47;nan;97352.53;7395049;19;20007;-56
2023/12/09 07:21:13;;;;;;;0.20;0.20;;;;;;;13.46;nan;97333.53;7396889;19;20348;-56
2023/12/09 07:23:40;;;;;;;0.10;0.10;;;;;;;13.46;nan;97320.28;7393595;19;20465;-56
2023/12/09 07:26:06;;;;;;;0.10;0.10;;;;;;;13.51;nan;97305.38;7393843;19;20002;-56
2023/12/09 07:28:33;;;;;;;0.10;0.10;;;;;;;21.87;nan;97277.75;7394181;19;20352;-56
2023/12/09 07:31:00;;;;;;;0.10;0.10;;;;;;;32.14;nan;97240.34;7394868;19;20011;-56
2023/12/09 07:33:26;;;;;;;0.15;0.15;;;;;;;20.34;nan;97250.88;7398051;19;20011;-56
2023/12/09 07:35:52;;;;;;;0.10;0.10;;;;;;;17.67;nan;97266.06;7393564;19;20031;-56
2023/12/09 07:38:19;;;;;;;0.10;0.10;;;;;;;15.28;nan;97263.91;7392860;19;20365;-56
2023/12/09 07:40:45;;;;;;;0.10;0.10;;;;;;;14.81;nan;97251.44;7392738;19;20027;-56
2023/12/09 07:43:11;;;;;;;0.25;0.20;;;;;;;14.57;nan;97231.78;7396658;19;20034;-56
2023/12/09 07:45:37;;;;;;;0.10;0.10;;;;;;;14.49;nan;97223.38;7391946;19;20034;-56
2023/12/09 07:48:03;;;;;;;0.10;0.10;;;;;;;16.61;nan;97195.13;7392475;19;20018;-55
2023/12/09 07:50:34;;;;;;;0.10;0.10;;;;;;;17.68;nan;97191.53;7393459;19;20451;-56
2023/12/09 07:53:02;;;;;;;0.10;0.10;;;;;;;14.89;nan;97179.31;7397246;19;20356;-55
2023/12/09 07:55:29;;;;;;;0.63;0.55;;;;;;;14.43;nan;97172.44;7392519;19;20015;-56
2023/12/09 07:57:56;;;;;;;0.30;0.30;;;;;;;14.38;nan;97159.38;7392020;19;20066;-56
2023/12/09 08:00:22;;;;;;;0.10;0.10;;;;;;;14.37;nan;97138.31;7392540;19;20021;-56
2023/12/09 08:02:48;;;;;;;0.10;0.00;;;;;;;14.35;nan;97121.34;7396920;19;20414;-56
2023/12/09 08:05:17;;;;;;;0.10;0.10;;;;;;;14.28;nan;97133.28;7392926;19;20003;-56
2023/12/09 08:07:43;;;;;;;0.10;0.10;;;;;;;14.32;nan;97125.28;7393101;19;20014;-56
2023/12/09 08:10:10;;;;;;;0.10;0.10;;;;;;;14.34;nan;97122.66;7389790;19;20494;-56
2023/12/09 08:12:36;;;;;;;0.10;0.10;;;;;;;14.38;nan;97120.94;7393779;19;20066;-55
2023/12/09 08:15:03;;;;;;;0.10;0.00;;;;;;;14.39;nan;97116.84;7393808;19;20014;-55
2023/12/09 08:17:29;;;;;;;0.10;0.10;;;;;;;14.35;nan;97126.94;7394388;19;20019;-56
2023/12/09 08:19:55;;;;;;;0.10;0.00;;;;;;;14.32;nan;97112.03;7393930;19;20011;-55
2023/12/09 08:22:21;;;;;;;0.10;0.10;;;;;;;14.37;nan;97099.13;7395117;19;20031;-54
2023/12/09 08:24:48;;;;;;;0.10;0.10;;;;;;;14.36;nan;97100.41;7391780;19;20010;-55
2023/12/09 08:27:14;;;;;;;0.10;0.10;;;;;;;14.37;nan;97104.72;7391992;19;20007;-54
2023/12/09 08:29:40;;;;;;;0.10;0.10;;;;;;;14.44;nan;97095.53;7390154;19;20351;-54
2023/12/09 08:32:06;;;;;;;0.10;0.10;;;;;;;14.49;nan;97091.75;7393073;19;20032;-54
2023/12/09 08:34:32;;;;;;;0.20;0.20;;;;;;;14.53;nan;97086.50;7391322;19;20014;-54
2023/12/09 08:36:58;;;;;;;0.10;0.10;;;;;;;14.53;nan;97089.31;7393198;19;20395;-54
2023/12/09 08:39:25;;;;;;;0.10;0.10;;;;;;;14.55;nan;97085.97;7391174;19;20014;-55
2023/12/09 08:41:51;;;;;;;0.10;0.10;;;;;;;14.56;nan;97074.19;7390556;19;20081;-54
2023/12/09 08:44:17;;;;;;;0.10;0.10;;;;;;;14.55;nan;97058.69;7392052;19;20082;-54
2023/12/09 08:46:44;;;;;;;0.10;0.00;;;;;;;14.57;nan;97047.66;7390990;19;20364;-54
2023/12/09 08:49:10;;;;;;;0.10;0.00;;;;;;;14.60;nan;97046.50;7391516;19;20011;-54
2023/12/09 08:51:44;;;;;;;0.10;0.10;;;;;;;14.61;nan;97028.41;7393976;19;20023;-54
2023/12/09 08:54:10;;;;;;;0.10;0.10;;;;;;;14.61;nan;97028.41;7391418;19;20028;-54
2023/12/09 08:56:37;;;;;;;0.10;0.00;;;;;;;14.63;nan;97022.22;7391648;19;20010;-56
2023/12/09 08:59:07;;;;;;;0.10;0.10;;;;;;;14.64;nan;97024.44;7391646;19;20014;-56
2023/12/09 09:01:34;;;;;;;0.10;0.10;;;;;;;14.61;nan;97020.00;7390221;19;20557;-56
2023/12/09 09:04:01;;;;;;;0.10;0.00;;;;;;;14.63;nan;97022.97;7390962;19;20021;-54
2023/12/09 09:06:27;;;;;;;0.03;0.00;;;;;;;14.67;nan;97017.72;7391334;19;20023;-54
2023/12/09 09:08:54;;;;;;;0.10;0.00;;;;;;;14.68;nan;97008.00;7388820;19;20010;-55
2023/12/09 09:11:23;;;;;;;0.10;0.00;;;;;;;14.63;nan;97006.16;7390911;19;20022;-54
2023/12/09 09:13:49;;;;;;;1.55;0.30;;;;;;;14.67;nan;96989.69;7393604;19;20007;-54
2023/12/09 09:16:15;;;;;;;0.10;0.08;;;;;;;14.70;nan;96987.81;7390141;19;20378;-54
2023/12/09 09:18:44;;;;;;;0.10;0.00;;;;;;;14.69;nan;96997.53;7389548;19;20015;-54
2023/12/09 09:21:10;;;;;;;0.10;0.00;;;;;;;14.71;nan;96973.22;7394659;19;20010;-55
2023/12/09 09:23:37;;;;;;;0.20;0.20;;;;;;;14.71;nan;96989.28;7401286;19;20026;-54
2023/12/09 09:26:04;;;;;;;0.10;0.00;;;;;;;14.68;nan;96974.38;7397295;19;20018;-54
2023/12/09 09:28:30;;;;;;;0.10;0.10;;;;;;;14.72;nan;96968.38;7394328;19;20048;-54
2023/12/09 09:30:57;;;;;;;0.10;0.10;;;;;;;14.71;nan;96973.22;7395061;19;20070;-54
2023/12/09 09:33:23;;;;;;;0.10;0.10;;;;;;;14.70;nan;96971.75;7397657;19;20026;-54
2023/12/09 09:35:52;;;;;;;0.10;0.00;;;;;;;14.75;nan;96973.56;7394200;19;20788;-54
2023/12/09 09:38:19;;;;;;;0.10;0.00;;;;;;;14.75;nan;96962.34;7393869;19;20345;-54
2023/12/09 09:40:45;;;;;;;0.10;0.10;;;;;;;14.78;nan;96966.81;7393853;19;20059;-54
2023/12/09 09:43:22;;;;;;;0.10;0.00;;;;;;;14.83;nan;96957.44;7398403;19;20018;-54
2023/12/09 09:45:48;;;;;;;0.00;0.00;;;;;;;14.84;nan;96964.53;7394200;19;20624;-54
2023/12/09 09:48:23;;;;;;;0.10;0.00;;;;;;;14.87;nan;96952.16;7395797;19;20010;-53
2023/12/09 09:50:52;;;;;;;0.10;0.00;;;;;;;14.91;nan;96963.72;7397028;19;20467;-54
2023/12/09 09:53:44;;;;;;;0.10;0.10;;;;;;;14.98;nan;96956.53;7400159;19;20027;-54
2023/12/09 09:56:12;;;;;;;0.10;0.10;;;;;;;14.99;nan;96953.16;7397754;19;20455;-54
2023/12/09 09:58:40;;;;;;;0.10;0.00;;;;;;;15.00;nan;96951.09;7395477;19;20002;-54
2023/12/09 10:01:09;;;;;;;0.10;0.00;;;;;;;15.01;nan;96944.91;7398723;19;20011;-54
2023/12/09 10:03:36;;;;;;;0.10;0.00;;;;;;;15.10;nan;96951.94;7398935;19;20034;-54
2023/12/09 10:06:04;;;;;;;0.10;0.00;;;;;;;15.16;nan;96939.16;7396903;19;20339;-54
2023/12/09 10:08:30;;;;;;;0.10;0.00;;;;;;;15.26;nan;96938.50;7396277;19;20066;-53
2023/12/09 10:10:56;;;;;;;0.10;0.00;;;;;;;15.33;nan;96923.66;7395821;19;20010;-53
2023/12/09 10:13:22;;;;;;;0.10;0.00;;;;;;;15.30;nan;96907.97;7399335;19;20022;-54
2023/12/09 10:15:49;;;;;;;0.10;0.00;;;;;;;15.35;nan;96904.94;7397600;19;20049;-53
2023/12/09 10:18:15;;;;;;;0.10;0.10;;;;;;;15.42;nan;96908.97;7397465;19;20490;-54
2023/12/09 10:20:43;;;;;;;0.10;0.00;;;;;;;15.45;nan;96916.22;7398109;19;20014;-53
2023/12/09 10:23:09;;;;;;;0.10;0.00;;;;;;;15.54;nan;96907.13;7398398;19;20014;-53
2023/12/09 10:25:35;;;;;;;0.10;0.00;;;;;;;15.67;nan;96906.78;7398216;19;20034;-54
2023/12/09 10:28:02;;;;;;;0.10;0.10;;;;;;;15.73;nan;96912.88;7399035;19;20006;-53
2023/12/09 10:30:28;;;;;;;0.10;0.10;;;;;;;32.08;nan;96880.25;7395630;19;20019;-54
2023/12/09 10:32:55;;;;;;;0.10;0.00;;;;;;;38.52;nan;96881.16;7396240;19;20372;-53
2023/12/09 10:35:21;;;;;;;0.10;0.10;;;;;;;40.06;nan;96869.59;7397415;19;20006;-54
2023/12/09 10:37:49;;;;;;;0.10;0.00;;;;;;;40.53;nan;96871.66;7396429;19;20011;-54
2023/12/09 10:40:15;;;;;;;0.10;0.00;;;;;;;41.05;nan;96855.28;7397313;19;20018;-54
2023/12/09 10:42:41;;;;;;;1.27;0.35;;;;;;;33.63;nan;96864.88;7396843;19;20035;-53
2023/12/09 10:45:08;;;;;;;0.10;0.00;;;;;;;31.97;nan;96870.75;7396840;19;20471;-53
2023/12/09 10:47:34;;;;;;;0.10;0.00;;;;;;;17.70;nan;96885.63;7396270;19;20043;-54
2023/12/09 10:50:03;;;;;;;0.03;0.00;;;;;;;16.89;nan;96869.81;7394349;19;20470;-56
2023/12/09 10:52:29;;;;;;;0.00;0.00;;;;;;;16.18;nan;96853.25;7399560;19;20010;-53
2023/12/09 10:54:57;;;;;;;0.08;0.00;;;;;;;16.28;nan;96858.91;7396016;19;20062;-53
2023/12/09 10:57:23;;;;;;;0.10;0.00;;;;;;;16.83;nan;96858.13;7395828;19;20018;-54
2023/12/09 10:59:50;;;;;;;0.00;0.00;;;;;;;16.31;nan;96857.69;7395220;19;20031;-53
2023/12/09 11:02:17;;;;;;;0.10;0.00;;;;;;;31.36;nan;96834.44;7394991;19;20416;-53
2023/12/09 11:04:44;;;;;;;0.05;0.05;;;;;;;18.82;nan;96855.28;7399583;19;20025;-53
2023/12/09 11:07:11;;;;;;;0.10;0.10;;;;;;;16.68;nan;96856.31;7395476;19;20023;-54
2023/12/09 11:09:39;;;;;;;0.10;0.10;;;;;;;26.66;nan;96828.28;7394603;19;20014;-53
2023/12/09 11:12:05;;;;;;;0.00;0.00;;;;;;;29.42;nan;96823.16;7397157;19;20014;-54
2023/12/09 11:14:31;;;;;;;0.00;0.00;;;;;;;33.08;nan;96819.59;7401096;19;20014;-54
2023/12/09 11:16:59;;;;;;;0.10;0.10;;;;;;;39.92;nan;96796.91;7400925;19;20523;-54
2023/12/09 11:19:26;;;;;;;0.10;0.10;;;;;;;41.40;nan;96803.38;7396870;19;20022;-54
2023/12/09 11:21:52;;;;;;;0.13;0.10;;;;;;;42.09;nan;96787.78;7401469;19;20129;-54
2023/12/09 11:24:19;;;;;;;0.50;0.50;;;;;;;42.61;nan;96777.53;7399558;19;20023;-53
2023/12/09 11:26:46;;;;;;;0.10;0.10;;;;;;;36.37;nan;96794.03;7395395;19;20059;-54
2023/12/09 11:29:15;;;;;;;0.88;0.52;;;;;;;24.35;nan;96799.72;7397733;19;20007;-87
2023/12/09 11:31:46;;;;;;;0.55;0.20;;;;;;;19.28;nan;96799.09;7394847;19;20014;-85
2023/12/09 11:34:14;;;;;;;1.30;1.15;;;;;;;18.05;nan;96802.22;7395237;19;20457;-91
2023/12/09 11:36:41;;;;;;;1.00;0.80;;;;;;;17.48;nan;96796.78;7391083;19;20006;-91
2023/12/09 11:39:11;;;;;;;0.10;0.10;;;;;;;17.28;nan;96806.59;7391226;19;20078;-88
2023/12/09 11:41:39;;;;;;;0.90;0.35;;;;;;;17.12;nan;96794.19;7392292;19;20019;-88
2023/12/09 11:44:06;;;;;;;1.35;0.85;;;;;;;17.04;nan;96800.00;7389943;19;20019;-89
2023/12/09 11:46:35;;;;;;;0.10;0.10;;;;;;;17.00;nan;96801.75;7389485;19;20018;-89
2023/12/09 11:49:05;;;;;;;0.10;0.10;;;;;;;17.05;nan;96806.31;7390947;19;20456;-89
2023/12/09 11:51:34;;;;;;;0.40;0.40;;;;;;;22.47;nan;96801.31;7393245;19;20010;-88